sensor_id;sensor_type;location;lat;lon;timestamp;pressure;altitude;pressure_sealevel;temperature;humidity
31403;BME280;18039;52.188;21.024;2022-12-20T00:01:47;78738.22;;;-141.45;90.12
31403;BME280;18039;52.188;21.024;2022-12-20T00:04:14;78734.19;;;-141.45;90.15
31403;BME280;18039;52.188;21.024;2022-12-20T00:06:41;78722.00;;;-141.45;90.47
31403;BME280;18039;52.188;21.024;2022-12-20T00:09:10;78722.00;;;-141.45;90.44
31403;BME280;18039;52.188;21.024;2022-12-20T00:11:39;78717.94;;;-141.45;90.40
31403;BME280;18039;52.188;21.024;2022-12-20T00:14:08;78705.78;;;-141.45;90.62
31403;BME280;18039;52.188;21.024;2022-12-20T00:16:35;78697.66;;;-141.45;90.97
31403;BME280;18039;52.188;21.024;2022-12-20T00:19:05;78705.78;;;-141.45;91.41
31403;BME280;18039;52.188;21.024;2022-12-20T00:21:33;78697.66;;;-141.45;91.40
31403;BME280;18039;52.188;21.024;2022-12-20T00:24:01;78685.50;;;-141.45;91.50
31403;BME280;18039;52.188;21.024;2022-12-20T00:26:31;78677.38;;;-141.45;91.80
31403;BME280;18039;52.188;21.024;2022-12-20T00:28:59;78673.31;;;-141.45;91.68
31403;BME280;18039;52.188;21.024;2022-12-20T00:31:28;78673.31;;;-141.45;91.70
31403;BME280;18039;52.188;21.024;2022-12-20T00:33:56;78669.28;;;-141.45;92.14
31403;BME280;18039;52.188;21.024;2022-12-20T00:36:26;78665.22;;;-141.45;92.55
31403;BME280;18039;52.188;21.024;2022-12-20T00:38:55;78661.16;;;-141.45;92.11
31403;BME280;18039;52.188;21.024;2022-12-20T00:41:24;78665.22;;;-141.45;92.48
31403;BME280;18039;52.188;21.024;2022-12-20T00:43:53;78665.22;;;-141.45;92.65
31403;BME280;18039;52.188;21.024;2022-12-20T00:46:22;78653.03;;;-141.45;92.70
31403;BME280;18039;52.188;21.024;2022-12-20T00:48:52;78651.03;;;-141.45;92.82
31403;BME280;18039;52.188;21.024;2022-12-20T00:51:23;78649.00;;;-141.45;93.09
31403;BME280;18039;52.188;21.024;2022-12-20T00:53:51;78640.88;;;-141.45;93.24
31403;BME280;18039;52.188;21.024;2022-12-20T00:56:18;78642.91;;;-141.45;93.48
31403;BME280;18039;52.188;21.024;2022-12-20T00:58:45;78632.75;;;-141.45;93.35
31403;BME280;18039;52.188;21.024;2022-12-20T01:01:24;78624.66;;;-141.45;93.85
31403;BME280;18039;52.188;21.024;2022-12-20T01:03:53;78622.63;;;-141.45;93.68
31403;BME280;18039;52.188;21.024;2022-12-20T01:06:21;78618.56;;;-141.45;93.92
31403;BME280;18039;52.188;21.024;2022-12-20T01:08:48;78608.44;;;-141.45;94.31
31403;BME280;18039;52.188;21.024;2022-12-20T01:11:21;78600.31;;;-141.45;94.58
31403;BME280;18039;52.188;21.024;2022-12-20T01:13:51;78594.22;;;-141.45;94.85
31403;BME280;18039;52.188;21.024;2022-12-20T01:16:22;78588.13;;;-141.45;94.93
31403;BME280;18039;52.188;21.024;2022-12-20T01:18:51;78584.09;;;-141.45;95.41
31403;BME280;18039;52.188;21.024;2022-12-20T01:21:20;78575.97;;;-141.45;95.92
31403;BME280;18039;52.188;21.024;2022-12-20T01:23:47;78559.75;;;-141.45;96.32
31403;BME280;18039;52.188;21.024;2022-12-20T01:26:16;78555.69;;;-141.45;96.54
31403;BME280;18039;52.188;21.024;2022-12-20T01:28:46;78559.75;;;-141.45;96.65
31403;BME280;18039;52.188;21.024;2022-12-20T01:31:16;78543.53;;;-141.45;96.75
31403;BME280;18039;52.188;21.024;2022-12-20T01:33:46;78543.53;;;-141.45;97.07
31403;BME280;18039;52.188;21.024;2022-12-20T01:36:16;78529.31;;;-141.45;97.35
31403;BME280;18039;52.188;21.024;2022-12-20T01:38:44;78513.09;;;-141.45;97.68
31403;BME280;18039;52.188;21.024;2022-12-20T01:41:16;78511.06;;;-141.45;97.85
31403;BME280;18039;52.188;21.024;2022-12-20T01:43:50;78507.00;;;-141.45;98.08
31403;BME280;18039;52.188;21.024;2022-12-20T01:46:20;78500.94;;;-141.45;98.43
31403;BME280;18039;52.188;21.024;2022-12-20T01:48:54;78494.84;;;-141.45;98.37
31403;BME280;18039;52.188;21.024;2022-12-20T01:51:22;78488.75;;;-141.45;98.57
31403;BME280;18039;52.188;21.024;2022-12-20T01:53:57;78474.56;;;-141.45;98.74
31403;BME280;18039;52.188;21.024;2022-12-20T01:56:27;78470.50;;;-141.45;99.14
31403;BME280;18039;52.188;21.024;2022-12-20T01:58:55;78466.44;;;-141.45;99.38
31403;BME280;18039;52.188;21.024;2022-12-20T02:01:23;78458.34;;;-141.45;99.38
31403;BME280;18039;52.188;21.024;2022-12-20T02:03:53;78452.25;;;-141.45;99.42
31403;BME280;18039;52.188;21.024;2022-12-20T02:06:23;78442.09;;;-141.45;99.79
31403;BME280;18039;52.188;21.024;2022-12-20T02:08:54;78434.00;;;-141.45;100.00
31403;BME280;18039;52.188;21.024;2022-12-20T02:14:28;78425.88;;;-141.45;100.00
31403;BME280;18039;52.188;21.024;2022-12-20T02:20:15;78419.78;;;-141.45;100.00
31403;BME280;18039;52.188;21.024;2022-12-20T02:29:20;78401.53;;;-141.45;100.00
31403;BME280;18039;52.188;21.024;2022-12-20T02:32:21;78397.50;;;-141.45;100.00
31403;BME280;18039;52.188;21.024;2022-12-20T02:34:50;78389.38;;;-141.45;100.00
31403;BME280;18039;52.188;21.024;2022-12-20T02:37:18;78391.41;;;-141.45;100.00
31403;BME280;18039;52.188;21.024;2022-12-20T02:39:45;78393.44;;;-141.45;100.00
31403;BME280;18039;52.188;21.024;2022-12-20T02:42:17;78393.44;;;-141.45;100.00
31403;BME280;18039;52.188;21.024;2022-12-20T02:44:50;78387.34;;;-141.45;100.00
31403;BME280;18039;52.188;21.024;2022-12-20T02:47:58;78381.25;;;-141.45;100.00
31403;BME280;18039;52.188;21.024;2022-12-20T02:50:35;78377.22;;;-141.45;100.00
31403;BME280;18039;52.188;21.024;2022-12-20T02:53:04;78377.22;;;-141.45;100.00
31403;BME280;18039;52.188;21.024;2022-12-20T02:55:53;78377.22;;;-141.45;100.00
31403;BME280;18039;52.188;21.024;2022-12-20T03:00:58;78371.13;;;-141.45;100.00
31403;BME280;18039;52.188;21.024;2022-12-20T03:03:32;78358.94;;;-141.45;100.00
31403;BME280;18039;52.188;21.024;2022-12-20T03:06:01;78356.94;;;-141.45;100.00
31403;BME280;18039;52.188;21.024;2022-12-20T03:08:29;78344.75;;;-141.45;100.00
31403;BME280;18039;52.188;21.024;2022-12-20T03:10:56;78340.69;;;-141.45;100.00
31403;BME280;18039;52.188;21.024;2022-12-20T03:13:24;78336.66;;;-141.45;100.00
31403;BME280;18039;52.188;21.024;2022-12-20T03:15:58;78332.59;;;-141.45;100.00
31403;BME280;18039;52.188;21.024;2022-12-20T03:18:26;78328.53;;;-141.45;100.00
31403;BME280;18039;52.188;21.024;2022-12-20T03:20:53;78328.53;;;-141.45;100.00
31403;BME280;18039;52.188;21.024;2022-12-20T03:23:21;78330.56;;;-141.45;100.00
31403;BME280;18039;52.188;21.024;2022-12-20T03:25:48;78328.53;;;-141.45;100.00
31403;BME280;18039;52.188;21.024;2022-12-20T03:28:25;78336.66;;;-141.45;100.00
31403;BME280;18039;52.188;21.024;2022-12-20T03:30:52;78336.66;;;-141.45;100.00
31403;BME280;18039;52.188;21.024;2022-12-20T03:33:20;78344.75;;;-141.45;100.00
31403;BME280;18039;52.188;21.024;2022-12-20T03:35:47;78336.66;;;-141.45;100.00
31403;BME280;18039;52.188;21.024;2022-12-20T03:38:16;78328.53;;;-141.45;100.00
31403;BME280;18039;52.188;21.024;2022-12-20T03:40:43;78308.25;;;-141.45;100.00
31403;BME280;18039;52.188;21.024;2022-12-20T03:43:13;78320.41;;;-141.45;100.00
31403;BME280;18039;52.188;21.024;2022-12-20T03:45:40;78324.47;;;-141.45;100.00
31403;BME280;18039;52.188;21.024;2022-12-20T03:48:08;78316.34;;;-141.45;100.00
31403;BME280;18039;52.188;21.024;2022-12-20T03:50:35;78308.25;;;-141.45;100.00
31403;BME280;18039;52.188;21.024;2022-12-20T03:53:03;78312.31;;;-141.45;100.00
31403;BME280;18039;52.188;21.024;2022-12-20T03:55:31;78304.19;;;-141.45;100.00
31403;BME280;18039;52.188;21.024;2022-12-20T03:57:59;78304.19;;;-141.45;100.00
31403;BME280;18039;52.188;21.024;2022-12-20T04:00:30;78316.34;;;-141.45;100.00
31403;BME280;18039;52.188;21.024;2022-12-20T04:03:16;78324.47;;;-141.45;100.00
31403;BME280;18039;52.188;21.024;2022-12-20T04:05:44;78320.41;;;-141.45;100.00
31403;BME280;18039;52.188;21.024;2022-12-20T04:08:11;78318.38;;;-141.45;100.00
31403;BME280;18039;52.188;21.024;2022-12-20T04:10:39;78304.19;;;-141.45;100.00
31403;BME280;18039;52.188;21.024;2022-12-20T04:13:31;78320.41;;;-141.45;100.00
31403;BME280;18039;52.188;21.024;2022-12-20T04:15:58;78304.19;;;-141.45;100.00
31403;BME280;18039;52.188;21.024;2022-12-20T04:18:30;78304.19;;;-141.45;100.00
31403;BME280;18039;52.188;21.024;2022-12-20T04:21:00;78300.13;;;-141.45;100.00
31403;BME280;18039;52.188;21.024;2022-12-20T04:23:29;78287.97;;;-141.45;100.00
31403;BME280;18039;52.188;21.024;2022-12-20T04:25:57;78285.94;;;-141.45;100.00
31403;BME280;18039;52.188;21.024;2022-12-20T04:28:25;78279.84;;;-141.45;100.00
31403;BME280;18039;52.188;21.024;2022-12-20T04:30:53;78267.69;;;-141.45;100.00
31403;BME280;18039;52.188;21.024;2022-12-20T04:33:24;78263.63;;;-141.45;100.00
31403;BME280;18039;52.188;21.024;2022-12-20T04:35:53;78283.91;;;-141.45;100.00
31403;BME280;18039;52.188;21.024;2022-12-20T04:38:22;78271.75;;;-141.45;100.00
31403;BME280;18039;52.188;21.024;2022-12-20T04:40:52;78265.66;;;-141.45;100.00
31403;BME280;18039;52.188;21.024;2022-12-20T04:43:23;78271.75;;;-141.45;100.00
31403;BME280;18039;52.188;21.024;2022-12-20T04:45:54;78281.88;;;-141.45;100.00
31403;BME280;18039;52.188;21.024;2022-12-20T04:48:26;78283.91;;;-141.45;100.00
31403;BME280;18039;52.188;21.024;2022-12-20T04:51:14;78287.97;;;-141.45;100.00
31403;BME280;18039;52.188;21.024;2022-12-20T04:53:43;78292.03;;;-141.45;100.00
31403;BME280;18039;52.188;21.024;2022-12-20T04:56:29;78281.88;;;-141.45;100.00
31403;BME280;18039;52.188;21.024;2022-12-20T04:59:03;78275.81;;;-141.45;100.00
31403;BME280;18039;52.188;21.024;2022-12-20T05:01:30;78279.84;;;-141.45;100.00
31403;BME280;18039;52.188;21.024;2022-12-20T05:03:58;78285.94;;;-141.45;100.00
31403;BME280;18039;52.188;21.024;2022-12-20T05:06:29;78279.84;;;-141.45;100.00
31403;BME280;18039;52.188;21.024;2022-12-20T05:08:57;78279.84;;;-141.45;100.00
31403;BME280;18039;52.188;21.024;2022-12-20T05:11:24;78279.84;;;-141.45;100.00
31403;BME280;18039;52.188;21.024;2022-12-20T05:13:51;78273.78;;;-141.45;100.00
31403;BME280;18039;52.188;21.024;2022-12-20T05:16:19;78259.56;;;-141.45;100.00
31403;BME280;18039;52.188;21.024;2022-12-20T05:18:47;78255.53;;;-141.45;100.00
31403;BME280;18039;52.188;21.024;2022-12-20T05:21:17;78251.47;;;-141.45;100.00
31403;BME280;18039;52.188;21.024;2022-12-20T05:24:17;78247.41;;;-141.45;100.00
31403;BME280;18039;52.188;21.024;2022-12-20T05:27:25;78247.41;;;-141.45;100.00
31403;BME280;18039;52.188;21.024;2022-12-20T05:29:52;78247.41;;;-141.45;100.00
31403;BME280;18039;52.188;21.024;2022-12-20T05:32:20;78245.38;;;-141.45;100.00
31403;BME280;18039;52.188;21.024;2022-12-20T05:34:47;78247.41;;;-141.45;100.00
31403;BME280;18039;52.188;21.024;2022-12-20T05:37:16;78235.25;;;-141.45;100.00
31403;BME280;18039;52.188;21.024;2022-12-20T05:39:44;78247.41;;;-141.45;100.00
31403;BME280;18039;52.188;21.024;2022-12-20T05:42:17;78239.28;;;-141.45;100.00
31403;BME280;18039;52.188;21.024;2022-12-20T05:44:44;78239.28;;;-141.45;100.00
31403;BME280;18039;52.188;21.024;2022-12-20T05:47:12;78231.19;;;-141.45;100.00
31403;BME280;18039;52.188;21.024;2022-12-20T05:49:39;78241.31;;;-141.45;100.00
31403;BME280;18039;52.188;21.024;2022-12-20T05:52:09;78239.28;;;-141.45;100.00
31403;BME280;18039;52.188;21.024;2022-12-20T05:54:38;78231.19;;;-141.45;100.00
31403;BME280;18039;52.188;21.024;2022-12-20T05:57:12;78235.25;;;-141.45;100.00
31403;BME280;18039;52.188;21.024;2022-12-20T05:59:42;78227.13;;;-141.45;100.00
31403;BME280;18039;52.188;21.024;2022-12-20T06:02:15;78239.28;;;-141.45;100.00
31403;BME280;18039;52.188;21.024;2022-12-20T06:04:44;78223.06;;;-141.45;100.00
31403;BME280;18039;52.188;21.024;2022-12-20T06:07:15;78223.06;;;-141.45;100.00
31403;BME280;18039;52.188;21.024;2022-12-20T06:09:46;78216.97;;;-141.45;100.00
31403;BME280;18039;52.188;21.024;2022-12-20T06:12:16;78227.13;;;-141.45;100.00
31403;BME280;18039;52.188;21.024;2022-12-20T06:14:45;78223.06;;;-141.45;100.00
31403;BME280;18039;52.188;21.024;2022-12-20T06:17:12;78219.00;;;-141.45;100.00
31403;BME280;18039;52.188;21.024;2022-12-20T06:19:39;78210.91;;;-141.45;100.00
31403;BME280;18039;52.188;21.024;2022-12-20T06:22:13;78214.97;;;-141.45;100.00
31403;BME280;18039;52.188;21.024;2022-12-20T06:24:44;78219.00;;;-141.45;100.00
31403;BME280;18039;52.188;21.024;2022-12-20T06:27:15;78231.19;;;-141.45;100.00
31403;BME280;18039;52.188;21.024;2022-12-20T06:29:48;78227.13;;;-141.45;100.00
31403;BME280;18039;52.188;21.024;2022-12-20T06:32:22;78231.19;;;-141.45;100.00
31403;BME280;18039;52.188;21.024;2022-12-20T06:34:50;78231.19;;;-141.45;100.00
31403;BME280;18039;52.188;21.024;2022-12-20T06:37:17;78227.13;;;-141.45;100.00
31403;BME280;18039;52.188;21.024;2022-12-20T06:39:44;78225.09;;;-141.45;100.00
31403;BME280;18039;52.188;21.024;2022-12-20T06:42:12;78223.06;;;-141.45;100.00
31403;BME280;18039;52.188;21.024;2022-12-20T06:44:42;78229.16;;;-141.45;100.00
31403;BME280;18039;52.188;21.024;2022-12-20T06:47:09;78219.00;;;-141.45;100.00
31403;BME280;18039;52.188;21.024;2022-12-20T06:49:37;78223.06;;;-141.45;100.00
31403;BME280;18039;52.188;21.024;2022-12-20T06:52:10;78223.06;;;-141.45;100.00
31403;BME280;18039;52.188;21.024;2022-12-20T06:54:44;78223.06;;;-141.45;100.00
31403;BME280;18039;52.188;21.024;2022-12-20T06:57:12;78227.13;;;-141.45;100.00
31403;BME280;18039;52.188;21.024;2022-12-20T06:59:41;78227.13;;;-141.45;100.00
31403;BME280;18039;52.188;21.024;2022-12-20T07:02:11;78227.13;;;-141.45;100.00
31403;BME280;18039;52.188;21.024;2022-12-20T07:04:39;78227.13;;;-141.45;100.00
31403;BME280;18039;52.188;21.024;2022-12-20T07:07:05;78227.13;;;-141.45;100.00
31403;BME280;18039;52.188;21.024;2022-12-20T07:09:33;78219.00;;;-141.45;100.00
31403;BME280;18039;52.188;21.024;2022-12-20T07:12:00;78214.97;;;-141.45;100.00
31403;BME280;18039;52.188;21.024;2022-12-20T07:14:28;78210.91;;;-141.45;100.00
31403;BME280;18039;52.188;21.024;2022-12-20T07:16:54;78206.84;;;-141.45;100.00
31403;BME280;18039;52.188;21.024;2022-12-20T07:19:22;78194.69;;;-141.45;100.00
31403;BME280;18039;52.188;21.024;2022-12-20T07:21:51;78192.66;;;-141.45;100.00
31403;BME280;18039;52.188;21.024;2022-12-20T07:24:18;78186.56;;;-141.45;100.00
31403;BME280;18039;52.188;21.024;2022-12-20T07:26:46;78182.50;;;-141.45;100.00
31403;BME280;18039;52.188;21.024;2022-12-20T07:29:13;78178.44;;;-141.45;100.00
31403;BME280;18039;52.188;21.024;2022-12-20T07:31:41;78174.41;;;-141.45;100.00
31403;BME280;18039;52.188;21.024;2022-12-20T07:34:09;78170.34;;;-141.45;100.00
31403;BME280;18039;52.188;21.024;2022-12-20T07:36:37;78162.22;;;-141.45;100.00
31403;BME280;18039;52.188;21.024;2022-12-20T07:39:04;78162.22;;;-141.45;100.00
31403;BME280;18039;52.188;21.024;2022-12-20T07:41:31;78166.28;;;-141.45;100.00
31403;BME280;18039;52.188;21.024;2022-12-20T07:43:58;78150.06;;;-141.45;100.00
31403;BME280;18039;52.188;21.024;2022-12-20T07:46:25;78146.00;;;-141.45;100.00
31403;BME280;18039;52.188;21.024;2022-12-20T07:48:54;78146.00;;;-141.45;100.00
31403;BME280;18039;52.188;21.024;2022-12-20T07:51:34;78129.78;;;-141.45;100.00
31403;BME280;18039;52.188;21.024;2022-12-20T07:54:08;78125.72;;;-141.45;100.00
31403;BME280;18039;52.188;21.024;2022-12-20T07:56:40;78125.72;;;-141.45;100.00
31403;BME280;18039;52.188;21.024;2022-12-20T07:59:10;78121.66;;;-141.45;100.00
31403;BME280;18039;52.188;21.024;2022-12-20T08:01:39;78117.63;;;-141.45;100.00
31403;BME280;18039;52.188;21.024;2022-12-20T08:04:13;78117.63;;;-141.45;100.00
31403;BME280;18039;52.188;21.024;2022-12-20T08:06:41;78105.44;;;-141.45;100.00
31403;BME280;18039;52.188;21.024;2022-12-20T08:09:10;78105.44;;;-141.45;100.00
31403;BME280;18039;52.188;21.024;2022-12-20T08:11:40;78103.41;;;-141.45;100.00
31403;BME280;18039;52.188;21.024;2022-12-20T08:14:09;78097.34;;;-141.45;100.00
31403;BME280;18039;52.188;21.024;2022-12-20T08:16:37;78103.41;;;-141.45;100.00
31403;BME280;18039;52.188;21.024;2022-12-20T08:19:04;78101.38;;;-141.45;100.00
31403;BME280;18039;52.188;21.024;2022-12-20T08:21:31;78105.44;;;-141.45;100.00
31403;BME280;18039;52.188;21.024;2022-12-20T08:23:58;78097.34;;;-141.45;100.00
31403;BME280;18039;52.188;21.024;2022-12-20T08:26:25;78101.38;;;-141.45;100.00
31403;BME280;18039;52.188;21.024;2022-12-20T08:28:54;78093.28;;;-141.45;100.00
31403;BME280;18039;52.188;21.024;2022-12-20T08:31:21;78081.09;;;-141.45;100.00
31403;BME280;18039;52.188;21.024;2022-12-20T08:33:48;78077.06;;;-141.45;100.00
31403;BME280;18039;52.188;21.024;2022-12-20T08:36:16;78077.06;;;-141.45;100.00
31403;BME280;18039;52.188;21.024;2022-12-20T08:38:43;78068.94;;;-141.45;100.00
31403;BME280;18039;52.188;21.024;2022-12-20T08:41:14;78064.88;;;-141.45;100.00
31403;BME280;18039;52.188;21.024;2022-12-20T08:43:42;78056.78;;;-141.45;100.00
31403;BME280;18039;52.188;21.024;2022-12-20T08:46:10;78044.59;;;-141.45;100.00
31403;BME280;18039;52.188;21.024;2022-12-20T08:48:38;78044.59;;;-141.45;100.00
31403;BME280;18039;52.188;21.024;2022-12-20T08:51:08;78040.56;;;-141.45;100.00
31403;BME280;18039;52.188;21.024;2022-12-20T08:53:37;78028.38;;;-141.45;100.00
31403;BME280;18039;52.188;21.024;2022-12-20T08:56:14;78020.28;;;-141.45;100.00
31403;BME280;18039;52.188;21.024;2022-12-20T08:58:43;78000.00;;;-141.45;100.00
31403;BME280;18039;52.188;21.024;2022-12-20T09:01:15;77997.97;;;-141.45;100.00
31403;BME280;18039;52.188;21.024;2022-12-20T09:03:44;77991.88;;;-141.45;100.00
31403;BME280;18039;52.188;21.024;2022-12-20T09:06:14;77991.88;;;-141.45;100.00
31403;BME280;18039;52.188;21.024;2022-12-20T09:08:42;77991.88;;;-141.45;99.90
31403;BME280;18039;52.188;21.024;2022-12-20T09:11:20;77987.81;;;-141.45;98.17
31403;BME280;18039;52.188;21.024;2022-12-20T09:13:50;78000.00;;;-141.45;96.00
31403;BME280;18039;52.188;21.024;2022-12-20T09:16:20;77991.88;;;-141.45;96.33
31403;BME280;18039;52.188;21.024;2022-12-20T09:18:49;77991.88;;;-141.45;95.03
31403;BME280;18039;52.188;21.024;2022-12-20T09:21:18;77987.81;;;-141.45;95.55
31403;BME280;18039;52.188;21.024;2022-12-20T09:23:46;77967.53;;;-141.45;96.86
31403;BME280;18039;52.188;21.024;2022-12-20T09:26:15;77963.50;;;-141.45;94.11
31403;BME280;18039;52.188;21.024;2022-12-20T09:28:44;77943.22;;;-141.45;95.74
31403;BME280;18039;52.188;21.024;2022-12-20T09:31:17;77933.06;;;-141.45;96.28
31403;BME280;18039;52.188;21.024;2022-12-20T09:33:45;77924.97;;;-141.45;96.25
31403;BME280;18039;52.188;21.024;2022-12-20T09:36:14;77902.66;;;-141.45;96.32
31403;BME280;18039;52.188;21.024;2022-12-20T09:38:44;77900.63;;;-141.45;94.26
31403;BME280;18039;52.188;21.024;2022-12-20T09:43:49;77880.34;;;-141.45;95.01
31403;BME280;18039;52.188;21.024;2022-12-20T09:46:17;77874.25;;;-141.45;94.09
31403;BME280;18039;52.188;21.024;2022-12-20T09:48:45;77862.09;;;-141.45;93.58
31403;BME280;18039;52.188;21.024;2022-12-20T09:51:42;77849.94;;;-141.45;93.59
31403;BME280;18039;52.188;21.024;2022-12-20T10:00:45;77845.88;;;-141.45;91.46
31403;BME280;18039;52.188;21.024;2022-12-20T10:03:31;77849.94;;;-141.45;91.75
31403;BME280;18039;52.188;21.024;2022-12-20T10:16:57;77862.09;;;-141.45;90.98
31403;BME280;18039;52.188;21.024;2022-12-20T10:22:36;77892.50;;;-141.45;89.10
31403;BME280;18039;52.188;21.024;2022-12-20T10:25:19;77902.66;;;-141.45;90.01
31403;BME280;18039;52.188;21.024;2022-12-20T10:27:52;77910.75;;;-141.45;89.73
31403;BME280;18039;52.188;21.024;2022-12-20T10:30:25;77918.88;;;-141.45;89.68
31403;BME280;18039;52.188;21.024;2022-12-20T10:32:55;77935.09;;;-141.45;91.53
31403;BME280;18039;52.188;21.024;2022-12-20T10:35:30;77943.22;;;-141.45;95.45
31403;BME280;18039;52.188;21.024;2022-12-20T10:38:10;77971.59;;;-141.45;98.80
31403;BME280;18039;52.188;21.024;2022-12-20T10:40:44;77979.72;;;-141.45;100.00
31403;BME280;18039;52.188;21.024;2022-12-20T10:43:53;77977.69;;;-141.45;100.00
31403;BME280;18039;52.188;21.024;2022-12-20T10:46:22;77987.81;;;-141.45;100.00
31403;BME280;18039;52.188;21.024;2022-12-20T10:49:21;77987.81;;;-141.45;100.00
31403;BME280;18039;52.188;21.024;2022-12-20T10:51:54;77979.72;;;-141.45;100.00
31403;BME280;18039;52.188;21.024;2022-12-20T10:54:27;77973.63;;;-141.45;100.00
31403;BME280;18039;52.188;21.024;2022-12-20T10:56:57;77963.50;;;-141.45;100.00
31403;BME280;18039;52.188;21.024;2022-12-20T10:59:32;77973.63;;;-141.45;100.00
31403;BME280;18039;52.188;21.024;2022-12-20T11:02:19;77971.59;;;-141.45;100.00
31403;BME280;18039;52.188;21.024;2022-12-20T11:05:18;77955.38;;;-141.45;100.00
31403;BME280;18039;52.188;21.024;2022-12-20T11:08:14;77947.25;;;-141.45;100.00
31403;BME280;18039;52.188;21.024;2022-12-20T11:11:21;77943.22;;;-141.45;100.00
31403;BME280;18039;52.188;21.024;2022-12-20T11:13:50;77939.16;;;-141.45;100.00
31403;BME280;18039;52.188;21.024;2022-12-20T11:16:28;77918.88;;;-141.45;100.00
31403;BME280;18039;52.188;21.024;2022-12-20T11:22:15;77890.47;;;-141.45;100.00
31403;BME280;18039;52.188;21.024;2022-12-20T11:27:52;77894.53;;;-141.45;100.00
31403;BME280;18039;52.188;21.024;2022-12-20T11:36:16;77904.69;;;-141.45;100.00
31403;BME280;18039;52.188;21.024;2022-12-20T11:39:12;77898.59;;;-141.45;100.00
31403;BME280;18039;52.188;21.024;2022-12-20T11:45:09;77908.72;;;-141.45;100.00
31403;BME280;18039;52.188;21.024;2022-12-20T11:53:09;77870.22;;;-141.45;100.00
31403;BME280;18039;52.188;21.024;2022-12-20T11:55:42;77866.16;;;-141.45;100.00
31403;BME280;18039;52.188;21.024;2022-12-20T11:58:17;77849.94;;;-141.45;100.00
31403;BME280;18039;52.188;21.024;2022-12-20T12:00:54;77829.66;;;-141.45;100.00
31403;BME280;18039;52.188;21.024;2022-12-20T12:03:33;77805.31;;;-141.45;100.00
31403;BME280;18039;52.188;21.024;2022-12-20T12:06:04;77797.19;;;-141.45;100.00
31403;BME280;18039;52.188;21.024;2022-12-20T12:08:55;77789.09;;;-141.45;100.00
31403;BME280;18039;52.188;21.024;2022-12-20T12:11:38;77805.31;;;-141.45;100.00
31403;BME280;18039;52.188;21.024;2022-12-20T12:17:15;77776.94;;;-141.45;100.00
31403;BME280;18039;52.188;21.024;2022-12-20T12:19:45;77783.00;;;-141.45;100.00
31403;BME280;18039;52.188;21.024;2022-12-20T12:22:21;77780.97;;;-141.45;100.00
31403;BME280;18039;52.188;21.024;2022-12-20T12:24:54;77768.81;;;-141.45;100.00
31403;BME280;18039;52.188;21.024;2022-12-20T12:27:24;77764.75;;;-141.45;100.00
31403;BME280;18039;52.188;21.024;2022-12-20T12:29:53;77774.91;;;-141.45;100.00
31403;BME280;18039;52.188;21.024;2022-12-20T12:32:30;77780.97;;;-141.45;100.00
31403;BME280;18039;52.188;21.024;2022-12-20T12:35:16;77787.06;;;-141.45;100.00
31403;BME280;18039;52.188;21.024;2022-12-20T12:43:31;77833.69;;;-141.45;100.00
31403;BME280;18039;52.188;21.024;2022-12-20T12:46:32;77835.72;;;-141.45;100.00
31403;BME280;18039;52.188;21.024;2022-12-20T12:49:14;77837.75;;;-141.45;100.00
31403;BME280;18039;52.188;21.024;2022-12-20T12:51:54;77858.03;;;-141.45;100.00
31403;BME280;18039;52.188;21.024;2022-12-20T12:54:40;77864.13;;;-141.45;100.00
31403;BME280;18039;52.188;21.024;2022-12-20T12:57:16;77862.09;;;-141.45;100.00
31403;BME280;18039;52.188;21.024;2022-12-20T12:59:48;77858.03;;;-141.45;100.00
31403;BME280;18039;52.188;21.024;2022-12-20T13:02:21;77856.00;;;-141.45;100.00
31403;BME280;18039;52.188;21.024;2022-12-20T13:04:59;77856.00;;;-141.45;100.00
31403;BME280;18039;52.188;21.024;2022-12-20T13:26:09;77874.25;;;-141.45;100.00
31403;BME280;18039;52.188;21.024;2022-12-20T13:33:41;77892.50;;;-141.45;100.00
31403;BME280;18039;52.188;21.024;2022-12-20T13:41:37;77906.72;;;-141.45;100.00
31403;BME280;18039;52.188;21.024;2022-12-20T13:49:40;77918.88;;;-141.45;100.00
31403;BME280;18039;52.188;21.024;2022-12-20T13:52:24;77926.97;;;-141.45;100.00
31403;BME280;18039;52.188;21.024;2022-12-20T13:54:57;77939.16;;;-141.45;100.00
31403;BME280;18039;52.188;21.024;2022-12-20T13:57:41;77937.13;;;-141.45;100.00
31403;BME280;18039;52.188;21.024;2022-12-20T14:00:16;77939.16;;;-141.45;100.00
31403;BME280;18039;52.188;21.024;2022-12-20T14:02:45;77947.25;;;-141.45;100.00
31403;BME280;18039;52.188;21.024;2022-12-20T14:05:18;77933.06;;;-141.45;100.00
31403;BME280;18039;52.188;21.024;2022-12-20T14:07:50;77935.09;;;-141.45;100.00
31403;BME280;18039;52.188;21.024;2022-12-20T14:10:24;77931.03;;;-141.45;100.00
31403;BME280;18039;52.188;21.024;2022-12-20T14:12:53;77931.03;;;-141.45;100.00
31403;BME280;18039;52.188;21.024;2022-12-20T14:17:54;77914.81;;;-141.45;100.00
31403;BME280;18039;52.188;21.024;2022-12-20T14:20:28;77914.81;;;-141.45;100.00
31403;BME280;18039;52.188;21.024;2022-12-20T14:23:09;77922.94;;;-141.45;100.00
31403;BME280;18039;52.188;21.024;2022-12-20T14:25:45;77918.88;;;-141.45;100.00
31403;BME280;18039;52.188;21.024;2022-12-20T14:28:38;77931.03;;;-141.45;100.00
31403;BME280;18039;52.188;21.024;2022-12-20T14:33:49;77931.03;;;-141.45;100.00
31403;BME280;18039;52.188;21.024;2022-12-20T14:36:19;77929.00;;;-141.45;100.00